sensor_id;sensor_type;location;lat;lon;timestamp;temperature;humidity
25112;DHT22;13092;51.996;4.458;2023-03-09T00:02:21;1.90;99.90
25112;DHT22;13092;51.996;4.458;2023-03-09T00:04:49;1.90;99.90
25112;DHT22;13092;51.996;4.458;2023-03-09T00:07:21;1.90;99.90
25112;DHT22;13092;51.996;4.458;2023-03-09T00:09:49;1.90;99.90
25112;DHT22;13092;51.996;4.458;2023-03-09T00:12:17;1.90;99.90
25112;DHT22;13092;51.996;4.458;2023-03-09T00:14:45;1.90;99.90
25112;DHT22;13092;51.996;4.458;2023-03-09T00:17:15;1.90;99.90
25112;DHT22;13092;51.996;4.458;2023-03-09T00:19:43;2.00;99.90
25112;DHT22;13092;51.996;4.458;2023-03-09T00:22:11;2.00;99.90
25112;DHT22;13092;51.996;4.458;2023-03-09T00:24:39;1.90;99.90
25112;DHT22;13092;51.996;4.458;2023-03-09T00:27:13;2.00;99.90
25112;DHT22;13092;51.996;4.458;2023-03-09T00:29:42;2.10;99.90
25112;DHT22;13092;51.996;4.458;2023-03-09T00:32:10;2.00;99.90
25112;DHT22;13092;51.996;4.458;2023-03-09T00:34:43;2.10;99.90
25112;DHT22;13092;51.996;4.458;2023-03-09T00:37:12;2.10;99.90
25112;DHT22;13092;51.996;4.458;2023-03-09T00:39:41;2.00;99.90
25112;DHT22;13092;51.996;4.458;2023-03-09T00:42:10;2.10;99.90
25112;DHT22;13092;51.996;4.458;2023-03-09T00:44:38;2.20;99.90
25112;DHT22;13092;51.996;4.458;2023-03-09T00:47:07;2.10;99.90
25112;DHT22;13092;51.996;4.458;2023-03-09T00:49:36;2.40;99.90
25112;DHT22;13092;51.996;4.458;2023-03-09T00:52:06;2.20;99.90
25112;DHT22;13092;51.996;4.458;2023-03-09T00:54:35;2.20;99.90
25112;DHT22;13092;51.996;4.458;2023-03-09T00:57:03;2.10;99.90
25112;DHT22;13092;51.996;4.458;2023-03-09T00:59:32;2.10;99.90
25112;DHT22;13092;51.996;4.458;2023-03-09T01:02:00;2.20;99.90
25112;DHT22;13092;51.996;4.458;2023-03-09T01:04:29;2.10;99.90
25112;DHT22;13092;51.996;4.458;2023-03-09T01:06:57;2.10;99.90
25112;DHT22;13092;51.996;4.458;2023-03-09T01:09:27;2.10;99.90
25112;DHT22;13092;51.996;4.458;2023-03-09T01:11:56;2.10;99.90
25112;DHT22;13092;51.996;4.458;2023-03-09T01:14:24;2.10;99.90
25112;DHT22;13092;51.996;4.458;2023-03-09T01:16:53;2.20;99.90
25112;DHT22;13092;51.996;4.458;2023-03-09T01:19:22;2.10;99.90
25112;DHT22;13092;51.996;4.458;2023-03-09T01:21:51;2.20;99.90
25112;DHT22;13092;51.996;4.458;2023-03-09T01:24:19;2.20;99.90
25112;DHT22;13092;51.996;4.458;2023-03-09T01:26:49;2.20;99.90
25112;DHT22;13092;51.996;4.458;2023-03-09T01:29:20;2.10;99.90
25112;DHT22;13092;51.996;4.458;2023-03-09T01:31:49;2.20;99.90
25112;DHT22;13092;51.996;4.458;2023-03-09T01:34:18;2.20;99.90
25112;DHT22;13092;51.996;4.458;2023-03-09T01:36:48;2.20;99.90
25112;DHT22;13092;51.996;4.458;2023-03-09T01:39:17;2.20;99.90
25112;DHT22;13092;51.996;4.458;2023-03-09T01:41:50;2.20;99.90
25112;DHT22;13092;51.996;4.458;2023-03-09T01:44:19;2.10;99.90
25112;DHT22;13092;51.996;4.458;2023-03-09T01:46:50;2.10;99.90
25112;DHT22;13092;51.996;4.458;2023-03-09T01:49:26;2.20;99.90
25112;DHT22;13092;51.996;4.458;2023-03-09T01:52:01;2.20;99.90
25112;DHT22;13092;51.996;4.458;2023-03-09T01:54:34;2.20;99.90
25112;DHT22;13092;51.996;4.458;2023-03-09T01:57:11;2.10;99.90
25112;DHT22;13092;51.996;4.458;2023-03-09T01:59:43;2.10;99.90
25112;DHT22;13092;51.996;4.458;2023-03-09T02:02:14;2.00;99.90
25112;DHT22;13092;51.996;4.458;2023-03-09T02:04:45;2.00;99.90
25112;DHT22;13092;51.996;4.458;2023-03-09T02:07:17;2.00;99.90
25112;DHT22;13092;51.996;4.458;2023-03-09T02:09:52;2.00;99.90
25112;DHT22;13092;51.996;4.458;2023-03-09T02:12:24;1.90;99.90
25112;DHT22;13092;51.996;4.458;2023-03-09T02:14:53;2.00;99.90
25112;DHT22;13092;51.996;4.458;2023-03-09T02:17:23;2.00;99.90
25112;DHT22;13092;51.996;4.458;2023-03-09T02:20:07;2.10;99.90
25112;DHT22;13092;51.996;4.458;2023-03-09T02:22:39;2.00;99.90
25112;DHT22;13092;51.996;4.458;2023-03-09T02:25:18;2.00;99.90
25112;DHT22;13092;51.996;4.458;2023-03-09T02:27:52;2.10;99.90
25112;DHT22;13092;51.996;4.458;2023-03-09T02:30:27;2.20;99.90
25112;DHT22;13092;51.996;4.458;2023-03-09T02:33:09;2.20;99.90
25112;DHT22;13092;51.996;4.458;2023-03-09T02:35:51;2.40;99.90
25112;DHT22;13092;51.996;4.458;2023-03-09T02:38:27;2.30;99.90
25112;DHT22;13092;51.996;4.458;2023-03-09T02:41:12;2.30;99.90
25112;DHT22;13092;51.996;4.458;2023-03-09T02:43:50;2.40;99.90
25112;DHT22;13092;51.996;4.458;2023-03-09T02:46:25;2.30;99.90
25112;DHT22;13092;51.996;4.458;2023-03-09T02:48:58;2.30;99.90
25112;DHT22;13092;51.996;4.458;2023-03-09T02:51:30;2.30;99.90
25112;DHT22;13092;51.996;4.458;2023-03-09T02:54:01;2.30;99.90
25112;DHT22;13092;51.996;4.458;2023-03-09T02:56:32;2.30;99.90
25112;DHT22;13092;51.996;4.458;2023-03-09T02:59:02;2.50;99.90
25112;DHT22;13092;51.996;4.458;2023-03-09T03:01:31;2.30;99.90
25112;DHT22;13092;51.996;4.458;2023-03-09T03:04:01;2.30;99.90
25112;DHT22;13092;51.996;4.458;2023-03-09T03:06:45;2.30;99.90
25112;DHT22;13092;51.996;4.458;2023-03-09T03:09:17;2.30;99.90
25112;DHT22;13092;51.996;4.458;2023-03-09T03:11:45;2.30;99.90
25112;DHT22;13092;51.996;4.458;2023-03-09T03:14:16;2.30;99.90
25112;DHT22;13092;51.996;4.458;2023-03-09T03:16:44;2.20;99.90
25112;DHT22;13092;51.996;4.458;2023-03-09T03:19:12;2.40;99.90
25112;DHT22;13092;51.996;4.458;2023-03-09T03:21:41;2.30;99.90
25112;DHT22;13092;51.996;4.458;2023-03-09T03:24:09;2.30;99.90
25112;DHT22;13092;51.996;4.458;2023-03-09T03:26:39;2.30;99.90
25112;DHT22;13092;51.996;4.458;2023-03-09T04:41:19;2.30;99.90
25112;DHT22;13092;51.996;4.458;2023-03-09T04:43:48;2.50;99.90
25112;DHT22;13092;51.996;4.458;2023-03-09T04:46:19;2.40;99.90
25112;DHT22;13092;51.996;4.458;2023-03-09T04:48:49;2.40;99.90
25112;DHT22;13092;51.996;4.458;2023-03-09T04:51:26;2.40;99.90
25112;DHT22;13092;51.996;4.458;2023-03-09T04:54:00;2.50;99.90
25112;DHT22;13092;51.996;4.458;2023-03-09T04:56:31;2.50;99.90
25112;DHT22;13092;51.996;4.458;2023-03-09T04:59:00;2.40;99.90
25112;DHT22;13092;51.996;4.458;2023-03-09T05:06:51;2.50;99.90
25112;DHT22;13092;51.996;4.458;2023-03-09T05:12:18;2.60;99.90
25112;DHT22;13092;51.996;4.458;2023-03-09T05:14:46;2.60;99.90
25112;DHT22;13092;51.996;4.458;2023-03-09T05:17:14;2.60;99.90
25112;DHT22;13092;51.996;4.458;2023-03-09T05:19:42;2.50;99.90
25112;DHT22;13092;51.996;4.458;2023-03-09T05:22:10;2.60;99.90
25112;DHT22;13092;51.996;4.458;2023-03-09T05:24:38;2.60;99.90
25112;DHT22;13092;51.996;4.458;2023-03-09T05:27:06;2.70;99.90
25112;DHT22;13092;51.996;4.458;2023-03-09T05:29:36;2.60;99.90
25112;DHT22;13092;51.996;4.458;2023-03-09T05:32:05;2.60;99.90
25112;DHT22;13092;51.996;4.458;2023-03-09T05:34:37;2.50;99.90
25112;DHT22;13092;51.996;4.458;2023-03-09T05:37:05;2.50;99.90
25112;DHT22;13092;51.996;4.458;2023-03-09T05:39:35;2.50;99.90
25112;DHT22;13092;51.996;4.458;2023-03-09T05:42:03;2.50;99.90
25112;DHT22;13092;51.996;4.458;2023-03-09T05:44:32;2.50;99.90
25112;DHT22;13092;51.996;4.458;2023-03-09T05:47:02;2.50;99.90
25112;DHT22;13092;51.996;4.458;2023-03-09T05:49:33;2.50;99.90
25112;DHT22;13092;51.996;4.458;2023-03-09T05:52:01;2.50;99.90
25112;DHT22;13092;51.996;4.458;2023-03-09T05:54:29;2.50;99.90
25112;DHT22;13092;51.996;4.458;2023-03-09T05:56:57;2.40;99.90
25112;DHT22;13092;51.996;4.458;2023-03-09T05:59:26;2.50;99.90
25112;DHT22;13092;51.996;4.458;2023-03-09T06:01:55;2.50;99.90
25112;DHT22;13092;51.996;4.458;2023-03-09T06:04:24;2.40;99.90
25112;DHT22;13092;51.996;4.458;2023-03-09T06:06:52;2.40;99.90
25112;DHT22;13092;51.996;4.458;2023-03-09T06:09:21;2.40;99.90
25112;DHT22;13092;51.996;4.458;2023-03-09T06:11:50;2.50;99.90
25112;DHT22;13092;51.996;4.458;2023-03-09T06:14:18;2.50;99.90
25112;DHT22;13092;51.996;4.458;2023-03-09T06:16:46;2.60;99.90
25112;DHT22;13092;51.996;4.458;2023-03-09T06:19:14;2.60;99.90
25112;DHT22;13092;51.996;4.458;2023-03-09T06:21:44;2.60;99.90
25112;DHT22;13092;51.996;4.458;2023-03-09T06:24:12;2.60;99.90
25112;DHT22;13092;51.996;4.458;2023-03-09T06:26:41;2.60;99.90
25112;DHT22;13092;51.996;4.458;2023-03-09T06:29:10;2.80;99.90
25112;DHT22;13092;51.996;4.458;2023-03-09T06:31:41;2.70;99.90
25112;DHT22;13092;51.996;4.458;2023-03-09T06:34:14;2.80;99.90
25112;DHT22;13092;51.996;4.458;2023-03-09T06:36:56;2.80;99.90
25112;DHT22;13092;51.996;4.458;2023-03-09T06:39:31;2.80;99.90
25112;DHT22;13092;51.996;4.458;2023-03-09T06:42:17;2.70;99.90
25112;DHT22;13092;51.996;4.458;2023-03-09T06:44:47;2.70;99.90
25112;DHT22;13092;51.996;4.458;2023-03-09T06:47:24;2.70;99.90
25112;DHT22;13092;51.996;4.458;2023-03-09T06:50:00;2.70;99.90
25112;DHT22;13092;51.996;4.458;2023-03-09T06:55:28;2.80;99.90
25112;DHT22;13092;51.996;4.458;2023-03-09T06:58:00;2.80;99.90
25112;DHT22;13092;51.996;4.458;2023-03-09T07:00:28;2.80;99.90
25112;DHT22;13092;51.996;4.458;2023-03-09T07:02:57;2.90;99.90
25112;DHT22;13092;51.996;4.458;2023-03-09T07:05:26;2.90;99.90
25112;DHT22;13092;51.996;4.458;2023-03-09T07:07:58;2.80;99.90
25112;DHT22;13092;51.996;4.458;2023-03-09T07:10:28;3.10;99.90
25112;DHT22;13092;51.996;4.458;2023-03-09T07:12:56;3.00;99.90
25112;DHT22;13092;51.996;4.458;2023-03-09T07:15:25;3.00;99.90
25112;DHT22;13092;51.996;4.458;2023-03-09T07:17:53;3.00;99.90
25112;DHT22;13092;51.996;4.458;2023-03-09T07:20:21;3.10;99.90
25112;DHT22;13092;51.996;4.458;2023-03-09T07:22:51;3.10;99.90
25112;DHT22;13092;51.996;4.458;2023-03-09T07:25:19;3.10;99.90
25112;DHT22;13092;51.996;4.458;2023-03-09T07:27:48;3.10;99.90
25112;DHT22;13092;51.996;4.458;2023-03-09T07:30:17;3.10;99.90
25112;DHT22;13092;51.996;4.458;2023-03-09T07:32:45;3.10;99.90
25112;DHT22;13092;51.996;4.458;2023-03-09T07:35:13;3.10;99.90
25112;DHT22;13092;51.996;4.458;2023-03-09T07:37:42;3.10;99.90
25112;DHT22;13092;51.996;4.458;2023-03-09T07:40:11;3.20;99.90
25112;DHT22;13092;51.996;4.458;2023-03-09T07:42:40;3.20;99.90
25112;DHT22;13092;51.996;4.458;2023-03-09T07:45:13;3.20;99.90
25112;DHT22;13092;51.996;4.458;2023-03-09T07:47:41;3.30;99.90
25112;DHT22;13092;51.996;4.458;2023-03-09T07:50:10;3.40;99.90
25112;DHT22;13092;51.996;4.458;2023-03-09T07:52:39;3.50;99.90
25112;DHT22;13092;51.996;4.458;2023-03-09T07:55:09;3.50;99.90
25112;DHT22;13092;51.996;4.458;2023-03-09T07:57:39;3.60;99.90
25112;DHT22;13092;51.996;4.458;2023-03-09T08:00:13;3.60;99.90
25112;DHT22;13092;51.996;4.458;2023-03-09T08:02:47;3.60;99.90
25112;DHT22;13092;51.996;4.458;2023-03-09T08:05:15;3.50;99.90
25112;DHT22;13092;51.996;4.458;2023-03-09T08:07:45;3.50;99.90
25112;DHT22;13092;51.996;4.458;2023-03-09T08:10:15;3.60;99.90
25112;DHT22;13092;51.996;4.458;2023-03-09T08:12:47;3.70;99.90
25112;DHT22;13092;51.996;4.458;2023-03-09T08:15:17;3.70;99.90
25112;DHT22;13092;51.996;4.458;2023-03-09T08:17:47;3.70;99.90
25112;DHT22;13092;51.996;4.458;2023-03-09T08:20:16;3.60;99.90
25112;DHT22;13092;51.996;4.458;2023-03-09T08:22:44;3.60;99.90
25112;DHT22;13092;51.996;4.458;2023-03-09T08:25:13;3.60;99.90
25112;DHT22;13092;51.996;4.458;2023-03-09T08:27:42;3.60;99.90
25112;DHT22;13092;51.996;4.458;2023-03-09T08:30:12;3.70;99.90
25112;DHT22;13092;51.996;4.458;2023-03-09T08:32:42;3.80;99.90
25112;DHT22;13092;51.996;4.458;2023-03-09T08:35:13;3.80;99.90
25112;DHT22;13092;51.996;4.458;2023-03-09T08:37:42;3.80;99.90
25112;DHT22;13092;51.996;4.458;2023-03-09T08:40:10;3.80;99.90
25112;DHT22;13092;51.996;4.458;2023-03-09T08:42:39;3.90;99.90
25112;DHT22;13092;51.996;4.458;2023-03-09T08:45:08;4.00;99.90
25112;DHT22;13092;51.996;4.458;2023-03-09T08:47:37;4.00;99.90
25112;DHT22;13092;51.996;4.458;2023-03-09T08:50:09;4.10;99.90
25112;DHT22;13092;51.996;4.458;2023-03-09T08:52:37;4.20;99.90
25112;DHT22;13092;51.996;4.458;2023-03-09T08:55:08;4.30;99.90
25112;DHT22;13092;51.996;4.458;2023-03-09T08:57:38;4.20;99.90
25112;DHT22;13092;51.996;4.458;2023-03-09T09:00:13;4.20;99.90
25112;DHT22;13092;51.996;4.458;2023-03-09T09:02:44;4.20;99.90
25112;DHT22;13092;51.996;4.458;2023-03-09T09:05:14;4.20;99.90
25112;DHT22;13092;51.996;4.458;2023-03-09T09:07:42;4.30;99.90
25112;DHT22;13092;51.996;4.458;2023-03-09T09:10:12;4.30;99.90
25112;DHT22;13092;51.996;4.458;2023-03-09T09:13:01;4.30;99.90
25112;DHT22;13092;51.996;4.458;2023-03-09T09:15:29;4.20;99.90
25112;DHT22;13092;51.996;4.458;2023-03-09T09:17:58;4.10;99.90
25112;DHT22;13092;51.996;4.458;2023-03-09T09:20:28;4.10;99.90
25112;DHT22;13092;51.996;4.458;2023-03-09T09:22:56;4.20;99.90
25112;DHT22;13092;51.996;4.458;2023-03-09T09:25:25;4.30;99.90
25112;DHT22;13092;51.996;4.458;2023-03-09T09:27:53;4.40;99.90
25112;DHT22;13092;51.996;4.458;2023-03-09T09:30:22;4.40;99.90
25112;DHT22;13092;51.996;4.458;2023-03-09T09:32:50;4.50;99.90
25112;DHT22;13092;51.996;4.458;2023-03-09T09:35:19;4.60;99.90
25112;DHT22;13092;51.996;4.458;2023-03-09T09:37:49;4.60;99.90
25112;DHT22;13092;51.996;4.458;2023-03-09T09:40:19;4.60;99.90
25112;DHT22;13092;51.996;4.458;2023-03-09T09:42:47;4.60;99.90
25112;DHT22;13092;51.996;4.458;2023-03-09T09:45:27;4.50;99.90
25112;DHT22;13092;51.996;4.458;2023-03-09T09:47:57;4.40;99.90
25112;DHT22;13092;51.996;4.458;2023-03-09T09:50:34;4.40;99.90
25112;DHT22;13092;51.996;4.458;2023-03-09T09:53:12;4.40;99.90
25112;DHT22;13092;51.996;4.458;2023-03-09T09:55:44;4.50;99.90
25112;DHT22;13092;51.996;4.458;2023-03-09T10:06:18;4.50;99.90
25112;DHT22;13092;51.996;4.458;2023-03-09T10:08:52;4.50;99.90
25112;DHT22;13092;51.996;4.458;2023-03-09T10:11:26;4.60;99.90
25112;DHT22;13092;51.996;4.458;2023-03-09T10:13:58;4.60;99.90
25112;DHT22;13092;51.996;4.458;2023-03-09T10:16:33;4.70;99.90
25112;DHT22;13092;51.996;4.458;2023-03-09T10:19:07;4.90;99.90
25112;DHT22;13092;51.996;4.458;2023-03-09T10:21:44;4.80;99.90
25112;DHT22;13092;51.996;4.458;2023-03-09T10:26:57;4.80;99.90
25112;DHT22;13092;51.996;4.458;2023-03-09T10:29:37;4.80;99.90
25112;DHT22;13092;51.996;4.458;2023-03-09T10:32:13;4.70;99.90
25112;DHT22;13092;51.996;4.458;2023-03-09T10:43:14;4.80;99.90
25112;DHT22;13092;51.996;4.458;2023-03-09T11:05:26;4.80;99.90
25112;DHT22;13092;51.996;4.458;2023-03-09T11:08:08;4.70;99.90
25112;DHT22;13092;51.996;4.458;2023-03-09T11:11:02;4.70;99.90
25112;DHT22;13092;51.996;4.458;2023-03-09T11:13:33;4.70;99.90
25112;DHT22;13092;51.996;4.458;2023-03-09T11:16:13;4.80;99.90
25112;DHT22;13092;51.996;4.458;2023-03-09T11:18:45;4.80;99.90
25112;DHT22;13092;51.996;4.458;2023-03-09T11:21:23;4.80;99.90
25112;DHT22;13092;51.996;4.458;2023-03-09T11:23:54;4.80;99.90
25112;DHT22;13092;51.996;4.458;2023-03-09T11:36:19;4.70;99.90
25112;DHT22;13092;51.996;4.458;2023-03-09T11:38:52;4.70;99.90
25112;DHT22;13092;51.996;4.458;2023-03-09T11:41:25;4.60;99.90
25112;DHT22;13092;51.996;4.458;2023-03-09T11:43:59;4.60;99.90
25112;DHT22;13092;51.996;4.458;2023-03-09T11:46:30;4.60;99.90
25112;DHT22;13092;51.996;4.458;2023-03-09T11:49:06;4.60;99.90
25112;DHT22;13092;51.996;4.458;2023-03-09T11:51:37;4.60;99.90
25112;DHT22;13092;51.996;4.458;2023-03-09T11:54:18;4.60;99.90
25112;DHT22;13092;51.996;4.458;2023-03-09T11:56:49;4.60;99.90
25112;DHT22;13092;51.996;4.458;2023-03-09T11:59:20;4.50;99.90
25112;DHT22;13092;51.996;4.458;2023-03-09T12:01:52;4.50;99.90
25112;DHT22;13092;51.996;4.458;2023-03-09T12:04:24;4.50;99.90
25112;DHT22;13092;51.996;4.458;2023-03-09T12:06:59;4.50;99.90
25112;DHT22;13092;51.996;4.458;2023-03-09T12:09:36;4.50;99.90
25112;DHT22;13092;51.996;4.458;2023-03-09T12:12:21;4.50;99.90
25112;DHT22;13092;51.996;4.458;2023-03-09T12:15:01;4.40;99.90
25112;DHT22;13092;51.996;4.458;2023-03-09T12:17:37;4.30;99.90
25112;DHT22;13092;51.996;4.458;2023-03-09T12:20:19;4.10;99.90
25112;DHT22;13092;51.996;4.458;2023-03-09T12:22:48;4.10;99.90
25112;DHT22;13092;51.996;4.458;2023-03-09T12:25:19;4.00;99.90
25112;DHT22;13092;51.996;4.458;2023-03-09T12:27:51;4.00;99.90
25112;DHT22;13092;51.996;4.458;2023-03-09T12:30:24;3.90;99.90
25112;DHT22;13092;51.996;4.458;2023-03-09T12:32:57;3.80;99.90
25112;DHT22;13092;51.996;4.458;2023-03-09T12:38:26;3.80;99.90
25112;DHT22;13092;51.996;4.458;2023-03-09T12:40:56;3.90;99.90
25112;DHT22;13092;51.996;4.458;2023-03-09T12:43:52;3.90;99.90
25112;DHT22;13092;51.996;4.458;2023-03-09T12:47:01;3.80;99.90
25112;DHT22;13092;51.996;4.458;2023-03-09T12:49:35;3.80;99.90
25112;DHT22;13092;51.996;4.458;2023-03-09T12:52:36;3.90;99.90
25112;DHT22;13092;51.996;4.458;2023-03-09T12:55:14;3.90;99.90
25112;DHT22;13092;51.996;4.458;2023-03-09T12:57:47;4.00;99.90
25112;DHT22;13092;51.996;4.458;2023-03-09T13:00:28;4.10;99.90
25112;DHT22;13092;51.996;4.458;2023-03-09T13:03:04;4.10;99.90
25112;DHT22;13092;51.996;4.458;2023-03-09T13:05:42;4.10;99.90
25112;DHT22;13092;51.996;4.458;2023-03-09T13:08:26;4.10;99.90
25112;DHT22;13092;51.996;4.458;2023-03-09T13:11:20;4.00;99.90
25112;DHT22;13092;51.996;4.458;2023-03-09T13:13:51;3.90;99.90
25112;DHT22;13092;51.996;4.458;2023-03-09T13:16:38;3.90;99.90
25112;DHT22;13092;51.996;4.458;2023-03-09T13:19:39;4.00;99.90
25112;DHT22;13092;51.996;4.458;2023-03-09T13:25:39;4.00;99.90
25112;DHT22;13092;51.996;4.458;2023-03-09T13:28:21;4.00;99.90
25112;DHT22;13092;51.996;4.458;2023-03-09T13:30:58;4.00;99.90
25112;DHT22;13092;51.996;4.458;2023-03-09T13:33:30;3.90;99.90
25112;DHT22;13092;51.996;4.458;2023-03-09T13:36:05;3.80;99.90
25112;DHT22;13092;51.996;4.458;2023-03-09T13:38:37;3.80;99.90
25112;DHT22;13092;51.996;4.458;2023-03-09T13:41:17;3.80;99.90
25112;DHT22;13092;51.996;4.458;2023-03-09T13:43:50;3.90;99.90
25112;DHT22;13092;51.996;4.458;2023-03-09T13:46:36;3.90;99.90
25112;DHT22;13092;51.996;4.458;2023-03-09T13:49:19;3.90;99.90
25112;DHT22;13092;51.996;4.458;2023-03-09T13:51:51;3.90;99.90
25112;DHT22;13092;51.996;4.458;2023-03-09T13:54:28;3.90;99.90
25112;DHT22;13092;51.996;4.458;2023-03-09T13:56:58;3.90;99.90
25112;DHT22;13092;51.996;4.458;2023-03-09T13:59:41;4.00;99.90
25112;DHT22;13092;51.996;4.458;2023-03-09T14:02:12;4.10;99.90
25112;DHT22;13092;51.996;4.458;2023-03-09T14:04:48;4.00;99.90
25112;DHT22;13092;51.996;4.458;2023-03-09T14:07:19;4.10;99.90
25112;DHT22;13092;51.996;4.458;2023-03-09T14:09:51;4.10;99.90
25112;DHT22;13092;51.996;4.458;2023-03-09T14:12:26;4.20;99.90
25112;DHT22;13092;51.996;4.458;2023-03-09T14:14:56;4.20;99.90
25112;DHT22;13092;51.996;4.458;2023-03-09T14:17:27;4.20;99.90
25112;DHT22;13092;51.996;4.458;2023-03-09T14:19:56;4.40;99.90
25112;DHT22;13092;51.996;4.458;2023-03-09T14:22:27;4.20;99.90
25112;DHT22;13092;51.996;4.458;2023-03-09T14:24:56;4.30;99.90
25112;DHT22;13092;51.996;4.458;2023-03-09T14:27:29;4.40;99.90
25112;DHT22;13092;51.996;4.458;2023-03-09T14:29:58;4.10;99.90
25112;DHT22;13092;51.996;4.458;2023-03-09T14:32:58;4.20;99.90
25112;DHT22;13092;51.996;4.458;2023-03-09T14:35:31;4.30;99.90
25112;DHT22;13092;51.996;4.458;2023-03-09T14:37:59;4.30;99.90
25112;DHT22;13092;51.996;4.458;2023-03-09T14:40:30;4.30;99.90
25112;DHT22;13092;51.996;4.458;2023-03-09T14:43:20;4.30;99.90
25112;DHT22;13092;51.996;4.458;2023-03-09T14:45:49;4.30;99.90
25112;DHT22;13092;51.996;4.458;2023-03-09T14:48:18;4.40;99.90
25112;DHT22;13092;51.996;4.458;2023-03-09T14:50:47;4.50;99.90
25112;DHT22;13092;51.996;4.458;2023-03-09T14:53:15;4.30;99.90
25112;DHT22;13092;51.996;4.458;2023-03-09T14:56:20;4.20;99.90
25112;DHT22;13092;51.996;4.458;2023-03-09T14:59:35;4.30;99.90
25112;DHT22;13092;51.996;4.458;2023-03-09T15:02:55;4.20;99.90
25112;DHT22;13092;51.996;4.458;2023-03-09T15:06:31;4.20;99.90
25112;DHT22;13092;51.996;4.458;2023-03-09T15:10:28;4.30;99.90
25112;DHT22;13092;51.996;4.458;2023-03-09T15:13:46;4.10;99.90
25112;DHT22;13092;51.996;4.458;2023-03-09T15:16:18;4.10;99.90
25112;DHT22;13092;51.996;4.458;2023-03-09T15:18:51;4.20;99.90
25112;DHT22;13092;51.996;4.458;2023-03-09T15:21:30;4.10;99.90
25112;DHT22;13092;51.996;4.458;2023-03-09T15:23:58;4.20;99.90
25112;DHT22;13092;51.996;4.458;2023-03-09T15:26:26;4.30;99.90
25112;DHT22;13092;51.996;4.458;2023-03-09T15:28:57;4.10;99.90
25112;DHT22;13092;51.996;4.458;2023-03-09T15:31:29;4.20;99.90
25112;DHT22;13092;51.996;4.458;2023-03-09T15:34:00;4.10;99.90
25112;DHT22;13092;51.996;4.458;2023-03-09T15:36:41;4.10;99.90
25112;DHT22;13092;51.996;4.458;2023-03-09T15:39:10;4.10;99.90
25112;DHT22;13092;51.996;4.458;2023-03-09T15:41:41;4.00;99.90
25112;DHT22;13092;51.996;4.458;2023-03-09T15:44:14;4.10;99.90
25112;DHT22;13092;51.996;4.458;2023-03-09T15:46:43;4.10;99.90
25112;DHT22;13092;51.996;4.458;2023-03-09T15:49:11;4.20;99.90
25112;DHT22;13092;51.996;4.458;2023-03-09T15:51:41;4.10;99.90
25112;DHT22;13092;51.996;4.458;2023-03-09T15:54:11;4.20;99.90
25112;DHT22;13092;51.996;4.458;2023-03-09T15:56:39;4.10;99.90
25112;DHT22;13092;51.996;4.458;2023-03-09T15:59:08;4.20;99.90
25112;DHT22;13092;51.996;4.458;2023-03-09T16:01:36;4.10;99.90
25112;DHT22;13092;51.996;4.458;2023-03-09T16:04:06;4.20;99.90
25112;DHT22;13092;51.996;4.458;2023-03-09T16:06:35;4.20;99.90
25112;DHT22;13092;51.996;4.458;2023-03-09T16:09:15;4.00;99.90
25112;DHT22;13092;51.996;4.458;2023-03-09T16:12:00;4.20;99.90
25112;DHT22;13092;51.996;4.458;2023-03-09T16:14:29;4.20;99.90
25112;DHT22;13092;51.996;4.458;2023-03-09T16:16:57;4.20;99.90
25112;DHT22;13092;51.996;4.458;2023-03-09T16:19:25;4.10;99.90
25112;DHT22;13092;51.996;4.458;2023-03-09T16:21:56;4.10;99.90
25112;DHT22;13092;51.996;4.458;2023-03-09T16:24:26;4.10;99.90
25112;DHT22;13092;51.996;4.458;2023-03-09T16:27:05;4.10;99.90
25112;DHT22;13092;51.996;4.458;2023-03-09T16:29:34;4.00;99.90
25112;DHT22;13092;51.996;4.458;2023-03-09T16:32:03;4.10;99.90
25112;DHT22;13092;51.996;4.458;2023-03-09T16:34:31;4.10;99.90
25112;DHT22;13092;51.996;4.458;2023-03-09T16:37:02;4.10;99.90
25112;DHT22;13092;51.996;4.458;2023-03-09T16:39:33;4.00;99.90
25112;DHT22;13092;51.996;4.458;2023-03-09T16:42:02;4.00;99.90
25112;DHT22;13092;51.996;4.458;2023-03-09T16:44:33;4.10;99.90
25112;DHT22;13092;51.996;4.458;2023-03-09T16:47:04;4.10;99.90
25112;DHT22;13092;51.996;4.458;2023-03-09T16:49:34;4.10;99.90
25112;DHT22;13092;51.996;4.458;2023-03-09T16:52:03;4.10;99.90
25112;DHT22;13092;51.996;4.458;2023-03-09T16:54:34;4.10;99.90
25112;DHT22;13092;51.996;4.458;2023-03-09T16:57:03;4.00;99.90
25112;DHT22;13092;51.996;4.458;2023-03-09T16:59:32;4.10;99.90
25112;DHT22;13092;51.996;4.458;2023-03-09T17:02:00;4.10;99.90
25112;DHT22;13092;51.996;4.458;2023-03-09T17:04:29;4.10;99.90
25112;DHT22;13092;51.996;4.458;2023-03-09T17:06:59;4.10;99.90
25112;DHT22;13092;51.996;4.458;2023-03-09T17:09:27;4.10;99.90
25112;DHT22;13092;51.996;4.458;2023-03-09T17:11:57;4.20;99.90
25112;DHT22;13092;51.996;4.458;2023-03-09T17:14:25;4.20;99.90
25112;DHT22;13092;51.996;4.458;2023-03-09T17:16:55;4.10;99.90
25112;DHT22;13092;51.996;4.458;2023-03-09T17:19:30;4.10;99.90
25112;DHT22;13092;51.996;4.458;2023-03-09T17:21:59;4.10;99.90
25112;DHT22;13092;51.996;4.458;2023-03-09T17:24:28;4.10;99.90
25112;DHT22;13092;51.996;4.458;2023-03-09T17:26:59;4.10;99.90
25112;DHT22;13092;51.996;4.458;2023-03-09T17:29:27;4.10;99.90
25112;DHT22;13092;51.996;4.458;2023-03-09T17:31:57;4.10;99.90
25112;DHT22;13092;51.996;4.458;2023-03-09T17:34:25;4.10;99.90
25112;DHT22;13092;51.996;4.458;2023-03-09T17:36:54;4.10;99.90
25112;DHT22;13092;51.996;4.458;2023-03-09T17:39:23;4.10;99.90
25112;DHT22;13092;51.996;4.458;2023-03-09T17:41:51;4.10;99.90
25112;DHT22;13092;51.996;4.458;2023-03-09T17:44:22;4.10;99.90
25112;DHT22;13092;51.996;4.458;2023-03-09T17:47:04;4.10;99.90
25112;DHT22;13092;51.996;4.458;2023-03-09T17:49:32;4.10;99.90
25112;DHT22;13092;51.996;4.458;2023-03-09T17:52:00;4.10;99.90
25112;DHT22;13092;51.996;4.458;2023-03-09T17:54:28;4.10;99.90
25112;DHT22;13092;51.996;4.458;2023-03-09T17:56:57;4.10;99.90
25112;DHT22;13092;51.996;4.458;2023-03-09T17:59:27;4.10;99.90
25112;DHT22;13092;51.996;4.458;2023-03-09T18:01:55;4.10;99.90
25112;DHT22;13092;51.996;4.458;2023-03-09T18:04:23;4.10;99.90
25112;DHT22;13092;51.996;4.458;2023-03-09T18:06:52;4.00;99.90
25112;DHT22;13092;51.996;4.458;2023-03-09T18:13:25;4.00;99.90
25112;DHT22;13092;51.996;4.458;2023-03-09T18:15:55;4.00;99.90
25112;DHT22;13092;51.996;4.458;2023-03-09T18:18:24;4.00;99.90
25112;DHT22;13092;51.996;4.458;2023-03-09T18:20:54;4.00;99.90
25112;DHT22;13092;51.996;4.458;2023-03-09T18:23:23;4.00;99.90
25112;DHT22;13092;51.996;4.458;2023-03-09T18:25:52;4.00;99.90
25112;DHT22;13092;51.996;4.458;2023-03-09T18:28:21;4.00;99.90
25112;DHT22;13092;51.996;4.458;2023-03-09T18:30:49;4.10;99.90
25112;DHT22;13092;51.996;4.458;2023-03-09T18:33:18;4.10;99.90
25112;DHT22;13092;51.996;4.458;2023-03-09T18:35:47;4.10;99.90
25112;DHT22;13092;51.996;4.458;2023-03-09T18:38:15;4.10;99.90
25112;DHT22;13092;51.996;4.458;2023-03-09T18:40:43;4.00;99.90
25112;DHT22;13092;51.996;4.458;2023-03-09T18:43:11;4.00;99.90